Time;durP1;ratioP1;P1;durP2;ratioP2;P2;SDS_P1;SDS_P2;PMS_P1;PMS_P2;Temp;Humidity;BMP_temperature;BMP_pressure;BME280_temperature;BME280_humidity;BME280_pressure;Samples;Min_cycle;Max_cycle;Signal;HPM_P1;HPM_P2
2023/02/09 00:02:07;;;;;;;14.97;8.07;;;;;;;;;;5004539;28;20168;-69
2023/02/09 00:04:33;;;;;;;15.27;8.23;;;;;;;;;;5005495;28;20329;-70
2023/02/09 00:06:59;;;;;;;12.63;8.83;;;;;;;;;;5003061;28;20497;-69
2023/02/09 00:09:24;;;;;;;13.43;8.23;;;;;;;;;;5005174;28;20274;-69
2023/02/09 00:14:33;;;;;;;14.07;8.20;;;;;;;;;;5011607;28;20190;-69
2023/02/09 00:17:04;;;;;;;10.80;7.13;;;;;;;;;;5009291;28;20183;-69
2023/02/09 00:19:30;;;;;;;15.33;7.53;;;;;;;;;;5006895;28;20535;-69
2023/02/09 00:21:56;;;;;;;12.33;7.40;;;;;;;;;;5011045;28;20194;-69
2023/02/09 00:24:21;;;;;;;14.53;7.40;;;;;;;;;;5009259;28;20241;-71
2023/02/09 00:26:46;;;;;;;11.77;7.60;;;;;;;;;;5008993;28;20194;-71
2023/02/09 00:29:12;;;;;;;12.10;7.17;;;;;;;;;;5003361;28;20681;-71
2023/02/09 00:31:37;;;;;;;13.67;8.20;;;;;;;;;;5014224;28;20297;-71
2023/02/09 00:34:03;;;;;;;15.20;8.43;;;;;;;;;;5004115;28;20191;-71
2023/02/09 00:36:29;;;;;;;12.40;7.83;;;;;;;;;;5002777;28;20183;-68
2023/02/09 00:38:55;;;;;;;12.23;8.40;;;;;;;;;;5004401;28;20218;-71
2023/02/09 00:44:04;;;;;;;13.07;7.40;;;;;;;;;;5003891;28;20264;-68
2023/02/09 00:46:29;;;;;;;14.63;8.30;;;;;;;;;;5011500;28;22103;-72
2023/02/09 00:48:54;;;;;;;16.77;8.40;;;;;;;;;;5005646;28;20193;-69
2023/02/09 00:51:19;;;;;;;13.30;7.70;;;;;;;;;;5007475;28;20205;-69
2023/02/09 00:53:45;;;;;;;10.63;6.97;;;;;;;;;;5004929;28;20265;-69
2023/02/09 00:56:10;;;;;;;10.10;7.10;;;;;;;;;;5006686;28;20183;-69
2023/02/09 00:58:35;;;;;;;11.53;7.07;;;;;;;;;;5004233;28;20222;-70
2023/02/09 01:01:00;;;;;;;11.73;7.97;;;;;;;;;;5004541;28;20201;-69
2023/02/09 01:03:25;;;;;;;11.27;7.40;;;;;;;;;;5010807;28;20179;-70
2023/02/09 01:05:50;;;;;;;12.20;7.20;;;;;;;;;;5012460;28;20669;-69
2023/02/09 01:08:16;;;;;;;11.20;7.13;;;;;;;;;;5026559;28;20203;-70
2023/02/09 01:10:41;;;;;;;12.80;8.07;;;;;;;;;;5006251;28;20206;-69
2023/02/09 01:13:07;;;;;;;12.83;7.30;;;;;;;;;;5015759;28;20245;-70
2023/02/09 01:15:32;;;;;;;13.07;7.37;;;;;;;;;;5016125;28;20179;-70
2023/02/09 01:17:58;;;;;;;14.10;7.47;;;;;;;;;;5010635;28;20207;-70
2023/02/09 01:20:23;;;;;;;9.97;7.23;;;;;;;;;;5006294;28;20191;-70
2023/02/09 01:22:48;;;;;;;12.10;7.87;;;;;;;;;;5003474;28;20211;-69
2023/02/09 01:25:13;;;;;;;11.87;6.63;;;;;;;;;;5005831;28;20185;-69
2023/02/09 01:27:41;;;;;;;11.53;7.33;;;;;;;;;;5003296;28;20185;-69
2023/02/09 01:30:06;;;;;;;10.77;7.10;;;;;;;;;;5004242;28;20272;-69
2023/02/09 01:32:31;;;;;;;11.20;7.73;;;;;;;;;;5006000;28;20186;-70
2023/02/09 01:34:56;;;;;;;11.87;7.53;;;;;;;;;;5010297;28;20197;-69
2023/02/09 01:37:22;;;;;;;11.73;6.70;;;;;;;;;;5007067;28;20202;-69
2023/02/09 01:39:47;;;;;;;11.67;7.67;;;;;;;;;;5012160;28;20214;-70
2023/02/09 01:42:14;;;;;;;10.03;6.23;;;;;;;;;;5005684;28;20179;-70
2023/02/09 01:44:39;;;;;;;24.30;8.47;;;;;;;;;;5001883;28;20183;-70
2023/02/09 01:47:04;;;;;;;12.37;7.53;;;;;;;;;;5003630;28;20183;-70
2023/02/09 01:49:29;;;;;;;15.43;8.87;;;;;;;;;;5011073;28;20183;-71
2023/02/09 01:51:57;;;;;;;12.03;7.70;;;;;;;;;;5002280;28;20572;-70
2023/02/09 01:54:24;;;;;;;12.30;7.53;;;;;;;;;;5005243;28;20183;-70
2023/02/09 01:56:53;;;;;;;11.07;6.97;;;;;;;;;;5008598;28;20183;-70
2023/02/09 01:59:19;;;;;;;9.93;6.97;;;;;;;;;;5001253;28;20615;-70
2023/02/09 02:01:44;;;;;;;14.00;6.73;;;;;;;;;;5002930;28;20481;-70
2023/02/09 02:04:09;;;;;;;11.77;6.90;;;;;;;;;;5011021;28;20182;-70
2023/02/09 02:06:34;;;;;;;11.43;6.20;;;;;;;;;;5010059;28;20171;-70
2023/02/09 02:09:01;;;;;;;10.40;6.57;;;;;;;;;;5021156;28;20183;-71
2023/02/09 02:11:28;;;;;;;9.80;6.53;;;;;;;;;;4998179;28;20305;-70
2023/02/09 02:13:54;;;;;;;12.30;7.37;;;;;;;;;;5013932;28;20183;-70
2023/02/09 02:16:38;;;;;;;9.57;6.40;;;;;;;;;;5015235;28;20636;-70
2023/02/09 02:19:22;;;;;;;10.73;6.73;;;;;;;;;;5007051;28;20211;-70
2023/02/09 02:22:01;;;;;;;11.63;6.83;;;;;;;;;;5008966;28;20171;-71
2023/02/09 02:24:29;;;;;;;16.43;6.87;;;;;;;;;;5010164;28;20205;-71
2023/02/09 02:26:58;;;;;;;14.20;7.17;;;;;;;;;;5009123;28;20266;-71
2023/02/09 02:29:31;;;;;;;10.40;6.63;;;;;;;;;;5014107;28;20187;-71
2023/02/09 02:32:05;;;;;;;12.07;7.90;;;;;;;;;;5009548;28;20186;-70
2023/02/09 02:34:51;;;;;;;14.63;6.67;;;;;;;;;;5010269;28;20397;-70
2023/02/09 02:37:19;;;;;;;10.33;6.93;;;;;;;;;;5007290;28;20716;-71
2023/02/09 02:39:57;;;;;;;13.07;7.60;;;;;;;;;;5000190;28;20243;-71
2023/02/09 02:42:47;;;;;;;9.80;5.90;;;;;;;;;;5001761;28;20187;-71
2023/02/09 02:45:30;;;;;;;13.57;8.03;;;;;;;;;;5006862;28;20179;-71
2023/02/09 02:48:14;;;;;;;11.90;7.30;;;;;;;;;;5005032;28;20266;-70
2023/02/09 02:50:43;;;;;;;15.57;7.10;;;;;;;;;;5006823;28;20226;-70
2023/02/09 02:53:09;;;;;;;10.77;6.90;;;;;;;;;;5004375;28;20187;-71
2023/02/09 02:55:36;;;;;;;8.47;6.77;;;;;;;;;;5007179;28;20187;-70
2023/02/09 02:58:05;;;;;;;11.90;6.37;;;;;;;;;;5006503;28;20212;-71
2023/02/09 03:00:37;;;;;;;9.70;7.93;;;;;;;;;;5006604;28;20219;-71
2023/02/09 03:03:06;;;;;;;10.03;6.67;;;;;;;;;;5011813;28;20215;-71
2023/02/09 03:05:32;;;;;;;13.57;7.73;;;;;;;;;;5012216;28;20302;-71
2023/02/09 03:07:57;;;;;;;12.30;7.43;;;;;;;;;;5009361;28;20646;-71
2023/02/09 03:10:22;;;;;;;10.77;6.83;;;;;;;;;;5013841;28;20206;-70
2023/02/09 03:13:08;;;;;;;11.40;6.47;;;;;;;;;;5009185;28;20183;-69
2023/02/09 03:15:41;;;;;;;10.40;6.77;;;;;;;;;;5018155;28;20195;-69
2023/02/09 03:18:30;;;;;;;14.37;8.23;;;;;;;;;;5013704;28;20302;-70
2023/02/09 03:20:57;;;;;;;10.63;6.07;;;;;;;;;;5011033;28;20249;-70
2023/02/09 03:23:36;;;;;;;10.90;7.20;;;;;;;;;;5013593;28;20277;-69
2023/02/09 03:26:06;;;;;;;14.70;6.70;;;;;;;;;;5013593;28;20253;-70
2023/02/09 03:28:33;;;;;;;13.27;7.67;;;;;;;;;;5013814;28;20178;-70
2023/02/09 03:30:59;;;;;;;15.30;7.50;;;;;;;;;;5032480;23;20605;-70
2023/02/09 03:33:28;;;;;;;11.60;7.37;;;;;;;;;;5017764;28;20174;-71
2023/02/09 03:35:55;;;;;;;11.47;6.93;;;;;;;;;;5028243;28;20177;-70
2023/02/09 03:38:20;;;;;;;11.47;7.63;;;;;;;;;;5034283;28;20585;-71
2023/02/09 03:40:45;;;;;;;12.13;7.30;;;;;;;;;;5033225;28;20206;-70
2023/02/09 03:43:10;;;;;;;10.93;6.57;;;;;;;;;;5021198;28;20187;-71
2023/02/09 03:45:36;;;;;;;15.93;7.63;;;;;;;;;;5028805;28;20174;-71
2023/02/09 03:48:01;;;;;;;12.53;6.80;;;;;;;;;;5029672;28;20197;-70
2023/02/09 03:50:28;;;;;;;16.17;7.50;;;;;;;;;;5039065;28;20229;-70
2023/02/09 03:52:53;;;;;;;10.57;6.57;;;;;;;;;;5028521;28;20296;-70
2023/02/09 03:55:19;;;;;;;11.57;6.80;;;;;;;;;;5025500;28;20276;-70
2023/02/09 03:57:44;;;;;;;14.57;6.93;;;;;;;;;;5027143;28;20259;-70
2023/02/09 04:00:09;;;;;;;11.97;6.83;;;;;;;;;;5032023;28;20690;-70
2023/02/09 04:02:35;;;;;;;14.67;6.40;;;;;;;;;;5031733;28;20179;-70
2023/02/09 04:05:00;;;;;;;11.37;6.57;;;;;;;;;;5028764;28;20181;-71
2023/02/09 04:07:25;;;;;;;10.70;6.57;;;;;;;;;;5027822;28;20622;-71
2023/02/09 04:09:50;;;;;;;10.33;6.90;;;;;;;;;;5029012;28;20214;-71
2023/02/09 04:12:15;;;;;;;10.50;6.10;;;;;;;;;;5024604;28;20182;-70
2023/02/09 04:14:41;;;;;;;9.97;6.57;;;;;;;;;;5027931;28;20185;-71
2023/02/09 04:17:06;;;;;;;10.40;5.47;;;;;;;;;;5035564;28;20177;-70
2023/02/09 04:19:31;;;;;;;13.07;6.27;;;;;;;;;;5031337;28;20611;-71
2023/02/09 04:21:56;;;;;;;9.50;7.03;;;;;;;;;;5035340;28;20174;-70
2023/02/09 04:24:21;;;;;;;13.83;6.70;;;;;;;;;;5033548;28;20587;-70
2023/02/09 04:26:47;;;;;;;10.90;5.90;;;;;;;;;;5029560;28;20257;-70
2023/02/09 04:29:12;;;;;;;9.33;5.60;;;;;;;;;;5030472;28;20186;-71
2023/02/09 04:31:37;;;;;;;11.07;6.63;;;;;;;;;;5030701;28;20223;-72
2023/02/09 04:34:02;;;;;;;9.73;6.00;;;;;;;;;;5033274;28;20178;-72
2023/02/09 04:36:28;;;;;;;13.50;6.40;;;;;;;;;;5030770;28;20189;-70
2023/02/09 04:38:53;;;;;;;9.37;5.77;;;;;;;;;;5030431;28;20202;-70
2023/02/09 04:41:18;;;;;;;7.23;5.60;;;;;;;;;;5034770;28;20553;-70
2023/02/09 04:43:47;;;;;;;9.20;5.40;;;;;;;;;;5031187;28;20206;-70
2023/02/09 04:46:13;;;;;;;11.10;5.60;;;;;;;;;;5030752;28;20261;-71
2023/02/09 04:48:38;;;;;;;10.60;5.87;;;;;;;;;;5020614;28;20198;-70
2023/02/09 04:51:03;;;;;;;9.13;5.77;;;;;;;;;;5032711;28;20206;-70
2023/02/09 04:53:28;;;;;;;9.53;5.87;;;;;;;;;;5031987;28;20707;-70
2023/02/09 04:55:54;;;;;;;8.30;6.50;;;;;;;;;;5035759;28;20231;-71
2023/02/09 05:01:03;;;;;;;10.53;6.83;;;;;;;;;;5030466;28;20683;-71
2023/02/09 05:03:28;;;;;;;8.80;5.97;;;;;;;;;;5026934;28;20179;-70
2023/02/09 05:05:54;;;;;;;8.90;5.83;;;;;;;;;;5031407;28;20533;-71
2023/02/09 05:08:20;;;;;;;9.20;5.90;;;;;;;;;;5032664;28;20192;-71
2023/02/09 05:10:45;;;;;;;11.60;6.37;;;;;;;;;;5028824;28;20214;-70
2023/02/09 05:13:11;;;;;;;9.13;6.27;;;;;;;;;;5030454;28;20392;-70
2023/02/09 05:15:36;;;;;;;9.57;6.67;;;;;;;;;;5023233;28;20646;-70
2023/02/09 05:18:01;;;;;;;12.27;7.10;;;;;;;;;;5024531;28;20210;-70
2023/02/09 05:20:26;;;;;;;10.20;6.43;;;;;;;;;;5028264;28;20194;-70
2023/02/09 05:22:51;;;;;;;9.67;6.93;;;;;;;;;;5032212;28;20248;-70
2023/02/09 05:25:17;;;;;;;10.77;6.13;;;;;;;;;;5031185;28;20175;-70
2023/02/09 05:27:42;;;;;;;10.03;6.17;;;;;;;;;;5034523;28;20586;-70
2023/02/09 05:30:07;;;;;;;8.03;6.03;;;;;;;;;;5034143;28;20222;-71
2023/02/09 05:32:32;;;;;;;9.77;6.80;;;;;;;;;;5034652;28;20196;-71
2023/02/09 05:34:58;;;;;;;11.97;7.73;;;;;;;;;;5027097;28;20467;-71
2023/02/09 05:37:23;;;;;;;10.17;6.53;;;;;;;;;;5026277;28;20186;-71
2023/02/09 05:39:49;;;;;;;9.10;6.47;;;;;;;;;;5014682;28;20297;-71
2023/02/09 05:42:15;;;;;;;15.87;7.57;;;;;;;;;;5016066;28;20901;-71
2023/02/09 05:44:44;;;;;;;11.53;6.50;;;;;;;;;;5020037;28;20265;-71
2023/02/09 05:47:09;;;;;;;11.53;7.17;;;;;;;;;;5026762;28;20827;-71
2023/02/09 05:49:34;;;;;;;10.73;6.50;;;;;;;;;;5012820;28;20257;-71
2023/02/09 05:52:00;;;;;;;11.23;7.07;;;;;;;;;;5014622;28;20191;-71
2023/02/09 05:54:25;;;;;;;8.77;6.73;;;;;;;;;;5012873;28;20171;-71
2023/02/09 05:56:50;;;;;;;9.23;6.30;;;;;;;;;;5017726;28;20248;-71
2023/02/09 05:59:15;;;;;;;13.77;6.40;;;;;;;;;;5012980;28;20477;-71
2023/02/09 06:01:41;;;;;;;10.43;6.77;;;;;;;;;;5022095;28;20669;-70
2023/02/09 06:04:06;;;;;;;13.40;6.90;;;;;;;;;;5016353;28;20588;-71
2023/02/09 06:06:31;;;;;;;10.90;6.33;;;;;;;;;;5013696;28;20179;-71
2023/02/09 06:08:56;;;;;;;7.33;5.50;;;;;;;;;;5030970;28;20179;-71
2023/02/09 06:11:22;;;;;;;10.23;6.23;;;;;;;;;;5029639;28;20570;-70
2023/02/09 06:13:47;;;;;;;10.90;6.90;;;;;;;;;;5034268;28;20189;-71
2023/02/09 06:16:12;;;;;;;10.97;6.80;;;;;;;;;;5021473;28;20221;-70
2023/02/09 06:18:37;;;;;;;10.03;6.73;;;;;;;;;;5033316;28;20214;-71
2023/02/09 06:21:03;;;;;;;12.27;7.73;;;;;;;;;;5021838;28;20197;-70
2023/02/09 06:23:28;;;;;;;9.93;6.73;;;;;;;;;;5017052;28;20179;-70
2023/02/09 06:25:53;;;;;;;10.37;6.57;;;;;;;;;;5015918;28;20179;-70
2023/02/09 06:28:19;;;;;;;10.10;6.87;;;;;;;;;;5016741;28;20187;-71
2023/02/09 06:30:51;;;;;;;11.40;6.37;;;;;;;;;;5015228;28;20222;-71
2023/02/09 06:33:16;;;;;;;11.87;6.60;;;;;;;;;;5016425;28;20560;-71
2023/02/09 06:35:42;;;;;;;10.83;6.10;;;;;;;;;;5013084;28;20186;-70
2023/02/09 06:38:07;;;;;;;11.47;7.13;;;;;;;;;;5014870;28;20202;-70
2023/02/09 06:40:32;;;;;;;9.37;6.53;;;;;;;;;;5018334;28;20198;-70
2023/02/09 06:42:57;;;;;;;11.03;6.83;;;;;;;;;;5021393;28;20714;-69
2023/02/09 06:45:22;;;;;;;11.60;6.80;;;;;;;;;;5022672;28;20713;-70
2023/02/09 06:47:48;;;;;;;11.20;6.93;;;;;;;;;;5023117;28;20317;-69
2023/02/09 06:50:14;;;;;;;11.03;7.00;;;;;;;;;;5016413;28;20236;-70
2023/02/09 06:52:39;;;;;;;11.63;6.43;;;;;;;;;;5017137;28;20186;-70
2023/02/09 06:55:05;;;;;;;11.80;7.17;;;;;;;;;;5017498;28;20175;-70
2023/02/09 06:57:30;;;;;;;10.37;6.67;;;;;;;;;;5017404;28;20225;-70
2023/02/09 06:59:55;;;;;;;9.77;6.63;;;;;;;;;;5032306;28;20202;-70
2023/02/09 07:02:20;;;;;;;13.37;7.70;;;;;;;;;;5010079;28;20652;-69
2023/02/09 07:04:46;;;;;;;10.67;6.10;;;;;;;;;;5023188;28;20179;-70
2023/02/09 07:07:11;;;;;;;11.10;6.97;;;;;;;;;;5026536;28;20774;-73
2023/02/09 07:09:36;;;;;;;11.57;6.53;;;;;;;;;;5032580;28;20722;-71
2023/02/09 07:12:01;;;;;;;11.10;6.80;;;;;;;;;;5031926;28;20274;-71
2023/02/09 07:14:26;;;;;;;12.27;6.90;;;;;;;;;;5033080;28;20209;-71
2023/02/09 07:16:52;;;;;;;16.03;8.37;;;;;;;;;;5036071;28;20269;-71
2023/02/09 07:19:17;;;;;;;15.97;7.60;;;;;;;;;;5029942;28;20622;-71
2023/02/09 07:21:42;;;;;;;15.63;8.07;;;;;;;;;;5032326;28;20209;-71
2023/02/09 07:24:07;;;;;;;11.50;7.00;;;;;;;;;;5033883;28;20175;-71
2023/02/09 07:26:32;;;;;;;13.20;7.57;;;;;;;;;;5031762;28;20206;-71
2023/02/09 07:28:59;;;;;;;10.60;6.53;;;;;;;;;;5030492;28;20220;-71
2023/02/09 07:31:25;;;;;;;12.10;6.73;;;;;;;;;;5030163;28;20217;-71
2023/02/09 07:33:51;;;;;;;11.97;7.37;;;;;;;;;;5032109;28;20212;-71
2023/02/09 07:36:17;;;;;;;18.37;8.37;;;;;;;;;;5032682;28;20190;-71
2023/02/09 07:38:42;;;;;;;10.90;6.90;;;;;;;;;;5029702;28;20477;-71
2023/02/09 07:41:11;;;;;;;11.37;6.93;;;;;;;;;;5026110;28;20205;-71
2023/02/09 07:43:36;;;;;;;14.67;7.43;;;;;;;;;;5032316;28;20636;-71
2023/02/09 07:46:03;;;;;;;12.60;7.17;;;;;;;;;;5033324;28;20224;-71
2023/02/09 07:48:28;;;;;;;15.47;7.43;;;;;;;;;;5033037;28;20188;-71
2023/02/09 07:50:54;;;;;;;17.57;9.73;;;;;;;;;;5032452;28;20198;-71
2023/02/09 07:53:19;;;;;;;11.10;6.63;;;;;;;;;;5032347;28;20267;-71
2023/02/09 07:55:44;;;;;;;13.53;7.27;;;;;;;;;;5033302;28;20193;-71
2023/02/09 07:58:09;;;;;;;13.83;7.13;;;;;;;;;;5032846;28;20205;-73
2023/02/09 08:00:35;;;;;;;13.40;7.00;;;;;;;;;;5033130;28;20633;-71
2023/02/09 08:03:00;;;;;;;10.00;6.73;;;;;;;;;;5032904;28;20232;-72
2023/02/09 08:05:29;;;;;;;10.20;6.27;;;;;;;;;;5030431;28;20527;-71
2023/02/09 08:07:54;;;;;;;13.97;8.10;;;;;;;;;;5037712;28;20191;-71
2023/02/09 08:10:20;;;;;;;15.60;8.57;;;;;;;;;;5039046;28;20598;-72
2023/02/09 08:13:04;;;;;;;10.70;6.93;;;;;;;;;;5030102;28;20186;-72
2023/02/09 08:15:41;;;;;;;12.93;7.10;;;;;;;;;;5029798;28;20269;-71
2023/02/09 08:18:10;;;;;;;12.13;7.87;;;;;;;;;;5032678;28;20198;-72
2023/02/09 08:20:35;;;;;;;13.53;8.20;;;;;;;;;;5030859;28;20284;-72
2023/02/09 08:23:02;;;;;;;12.33;6.77;;;;;;;;;;5026893;28;20261;-71
2023/02/09 08:25:28;;;;;;;10.87;7.00;;;;;;;;;;5027507;28;20312;-71
2023/02/09 08:27:54;;;;;;;15.23;8.80;;;;;;;;;;5028229;28;20263;-72
2023/02/09 08:30:19;;;;;;;16.03;7.93;;;;;;;;;;5028852;28;20215;-72
2023/02/09 08:32:45;;;;;;;12.60;7.17;;;;;;;;;;5031492;28;20277;-72
2023/02/09 08:35:10;;;;;;;13.47;8.47;;;;;;;;;;5025943;28;20228;-71
2023/02/09 08:37:35;;;;;;;10.63;7.50;;;;;;;;;;5024479;28;20202;-71
2023/02/09 08:40:00;;;;;;;11.57;7.07;;;;;;;;;;5026230;28;20217;-71
2023/02/09 08:42:25;;;;;;;11.00;7.63;;;;;;;;;;5031646;28;20595;-71
2023/02/09 08:44:51;;;;;;;15.80;8.87;;;;;;;;;;5032252;28;20656;-71
2023/02/09 08:47:16;;;;;;;12.57;8.60;;;;;;;;;;5029330;28;20235;-71
2023/02/09 08:49:41;;;;;;;13.80;9.00;;;;;;;;;;5031679;28;20178;-72
2023/02/09 08:52:07;;;;;;;18.07;8.77;;;;;;;;;;5030102;28;20667;-71
2023/02/09 08:54:32;;;;;;;13.47;8.80;;;;;;;;;;5030129;28;20201;-72
2023/02/09 08:56:57;;;;;;;13.33;8.43;;;;;;;;;;5046299;28;20198;-71
2023/02/09 08:59:23;;;;;;;14.40;8.23;;;;;;;;;;5031366;28;20261;-72
2023/02/09 09:01:48;;;;;;;17.27;8.43;;;;;;;;;;5028591;28;20230;-71
2023/02/09 09:04:13;;;;;;;18.13;9.13;;;;;;;;;;5030035;28;20632;-72
2023/02/09 09:06:38;;;;;;;13.30;8.67;;;;;;;;;;5028296;28;20608;-71
2023/02/09 09:09:03;;;;;;;14.83;8.70;;;;;;;;;;5031797;28;20716;-71
2023/02/09 09:11:29;;;;;;;14.97;8.50;;;;;;;;;;5031055;28;20206;-71
2023/02/09 09:13:54;;;;;;;13.83;8.47;;;;;;;;;;5032027;28;20190;-72
2023/02/09 09:16:20;;;;;;;14.57;8.47;;;;;;;;;;5030721;28;20189;-71
2023/02/09 09:18:46;;;;;;;16.13;8.50;;;;;;;;;;5030796;28;20256;-71
2023/02/09 09:21:13;;;;;;;15.77;8.57;;;;;;;;;;5030034;28;20226;-71
2023/02/09 09:23:38;;;;;;;13.13;7.90;;;;;;;;;;5031190;28;20232;-71
2023/02/09 09:26:04;;;;;;;14.40;8.13;;;;;;;;;;5030793;28;20178;-71
2023/02/09 09:28:29;;;;;;;13.37;9.27;;;;;;;;;;5025262;28;20181;-71
2023/02/09 09:30:54;;;;;;;14.07;8.77;;;;;;;;;;5040431;22;20237;-71
2023/02/09 09:33:19;;;;;;;16.40;8.57;;;;;;;;;;5032309;28;20182;-71
2023/02/09 09:35:45;;;;;;;12.37;8.40;;;;;;;;;;5030109;28;20209;-71
2023/02/09 09:38:10;;;;;;;11.90;8.57;;;;;;;;;;5029717;28;20213;-70
2023/02/09 09:40:36;;;;;;;13.73;8.10;;;;;;;;;;5030254;28;20194;-71
2023/02/09 09:43:03;;;;;;;12.87;8.30;;;;;;;;;;5032531;28;20174;-70
2023/02/09 09:45:30;;;;;;;13.63;8.00;;;;;;;;;;5030399;28;20664;-71
2023/02/09 09:47:55;;;;;;;15.60;9.13;;;;;;;;;;5024469;28;20198;-71
2023/02/09 09:50:20;;;;;;;14.60;8.30;;;;;;;;;;5029017;28;20183;-71
2023/02/09 09:52:54;;;;;;;13.27;8.37;;;;;;;;;;5028741;28;20561;-71
2023/02/09 09:55:22;;;;;;;13.33;8.60;;;;;;;;;;5028814;28;20187;-71
2023/02/09 09:57:47;;;;;;;13.47;8.43;;;;;;;;;;5024906;28;20210;-71
2023/02/09 10:00:21;;;;;;;13.43;8.20;;;;;;;;;;5031955;28;20714;-70
2023/02/09 10:02:46;;;;;;;12.57;8.60;;;;;;;;;;5032814;28;20187;-71
2023/02/09 10:05:18;;;;;;;12.33;8.13;;;;;;;;;;5028392;28;20889;-69
2023/02/09 10:07:47;;;;;;;12.63;8.57;;;;;;;;;;5029921;28;20232;-70
2023/02/09 10:10:35;;;;;;;13.53;9.40;;;;;;;;;;5028400;28;20240;-71
2023/02/09 10:13:02;;;;;;;12.07;8.30;;;;;;;;;;5018077;28;20220;-71
2023/02/09 10:15:29;;;;;;;16.07;8.23;;;;;;;;;;5031088;28;20178;-71
2023/02/09 10:17:58;;;;;;;11.57;8.10;;;;;;;;;;5027304;28;20209;-71
2023/02/09 10:20:41;;;;;;;15.30;8.30;;;;;;;;;;5029265;28;20340;-71
2023/02/09 10:23:13;;;;;;;12.10;8.10;;;;;;;;;;5030360;28;20182;-71
2023/02/09 10:25:48;;;;;;;12.93;8.37;;;;;;;;;;5022384;28;20170;-71
2023/02/09 10:28:24;;;;;;;18.33;8.80;;;;;;;;;;5026040;28;20273;-71
2023/02/09 10:30:50;;;;;;;17.30;7.93;;;;;;;;;;5029398;28;20699;-71
2023/02/09 10:33:16;;;;;;;12.07;7.53;;;;;;;;;;5032074;28;20656;-71
2023/02/09 10:35:43;;;;;;;15.53;9.50;;;;;;;;;;5026812;28;20596;-71
2023/02/09 10:38:13;;;;;;;12.17;8.67;;;;;;;;;;5023528;28;20958;-71
2023/02/09 10:40:39;;;;;;;12.67;8.13;;;;;;;;;;5020545;28;20232;-71
2023/02/09 10:43:21;;;;;;;11.97;7.83;;;;;;;;;;5024275;28;20216;-71
2023/02/09 10:45:51;;;;;;;15.70;9.47;;;;;;;;;;5019687;28;20641;-71
2023/02/09 10:48:18;;;;;;;14.27;9.17;;;;;;;;;;5018891;28;20190;-70
2023/02/09 10:50:50;;;;;;;13.33;8.77;;;;;;;;;;5024593;28;20257;-71
2023/02/09 10:53:20;;;;;;;15.03;8.87;;;;;;;;;;5029868;28;20217;-71
2023/02/09 10:55:46;;;;;;;15.13;8.77;;;;;;;;;;5032430;28;20182;-70
2023/02/09 10:58:14;;;;;;;14.50;8.47;;;;;;;;;;5023911;28;20202;-70
2023/02/09 11:00:40;;;;;;;14.13;9.53;;;;;;;;;;5023070;28;20199;-71
2023/02/09 11:03:14;;;;;;;17.93;9.40;;;;;;;;;;5025773;28;20269;-71
2023/02/09 11:05:39;;;;;;;16.07;9.43;;;;;;;;;;5016620;28;20550;-70
2023/02/09 11:08:19;;;;;;;13.63;8.57;;;;;;;;;;5032155;28;20186;-71
2023/02/09 11:10:52;;;;;;;12.00;8.87;;;;;;;;;;5029487;28;20202;-70
2023/02/09 11:13:22;;;;;;;16.27;9.23;;;;;;;;;;5033293;28;20206;-72
2023/02/09 11:16:06;;;;;;;14.53;9.53;;;;;;;;;;5033842;28;20174;-71
2023/02/09 11:18:33;;;;;;;14.43;10.47;;;;;;;;;;5026098;28;20293;-70
2023/02/09 11:21:06;;;;;;;13.97;9.47;;;;;;;;;;5032311;28;20248;-71
2023/02/09 11:23:40;;;;;;;13.70;9.83;;;;;;;;;;5035805;28;20170;-70
2023/02/09 11:26:14;;;;;;;16.77;10.17;;;;;;;;;;5032587;28;20623;-71
2023/02/09 11:28:45;;;;;;;15.67;9.57;;;;;;;;;;5032974;28;20608;-70
2023/02/09 11:31:29;;;;;;;16.33;9.77;;;;;;;;;;5032820;28;20206;-71
2023/02/09 11:34:03;;;;;;;11.93;9.07;;;;;;;;;;5033939;28;20170;-71
2023/02/09 11:36:39;;;;;;;15.67;11.00;;;;;;;;;;5033455;28;20224;-71
2023/02/09 11:39:09;;;;;;;14.30;10.13;;;;;;;;;;5024637;28;20198;-70
2023/02/09 11:44:36;;;;;;;14.23;9.67;;;;;;;;;;5032964;28;20272;-71
2023/02/09 11:47:03;;;;;;;14.30;10.53;;;;;;;;;;5032099;28;20713;-70
2023/02/09 11:49:32;;;;;;;14.27;10.23;;;;;;;;;;5033174;28;20209;-70
2023/02/09 11:51:58;;;;;;;14.77;10.00;;;;;;;;;;5033015;28;20202;-71
2023/02/09 11:54:27;;;;;;;13.80;10.00;;;;;;;;;;5033691;28;20680;-71
2023/02/09 11:56:58;;;;;;;14.50;10.13;;;;;;;;;;5028375;28;20179;-70
2023/02/09 11:59:35;;;;;;;14.00;10.93;;;;;;;;;;5029584;28;20759;-71
2023/02/09 12:02:29;;;;;;;15.43;10.70;;;;;;;;;;5030215;28;20198;-71
2023/02/09 12:04:57;;;;;;;16.00;10.13;;;;;;;;;;5019714;28;20663;-70
2023/02/09 12:07:47;;;;;;;20.00;10.73;;;;;;;;;;5032732;28;20174;-70
2023/02/09 12:10:15;;;;;;;17.40;11.20;;;;;;;;;;5031173;28;20182;-70
2023/02/09 12:12:50;;;;;;;14.30;10.43;;;;;;;;;;5032133;28;20178;-70
2023/02/09 12:15:16;;;;;;;18.00;12.37;;;;;;;;;;5030606;28;20725;-70
2023/02/09 12:17:50;;;;;;;19.10;10.53;;;;;;;;;;5024077;28;20585;-70
2023/02/09 12:20:20;;;;;;;16.47;11.23;;;;;;;;;;5033320;28;20194;-70
2023/02/09 12:22:55;;;;;;;18.77;11.03;;;;;;;;;;5026163;28;20205;-70
2023/02/09 12:25:20;;;;;;;17.20;11.10;;;;;;;;;;5031186;28;20174;-71
2023/02/09 12:28:04;;;;;;;21.27;12.20;;;;;;;;;;5031409;28;20721;-70
2023/02/09 12:30:38;;;;;;;16.80;11.97;;;;;;;;;;5031483;28;20186;-72
2023/02/09 12:33:32;;;;;;;19.07;11.97;;;;;;;;;;5028183;28;20178;-72
2023/02/09 12:36:07;;;;;;;19.00;11.93;;;;;;;;;;4942170;28;20309;-73
2023/02/09 12:38:50;;;;;;;20.07;12.00;;;;;;;;;;5018507;28;20204;-70
2023/02/09 12:41:17;;;;;;;19.77;13.00;;;;;;;;;;5023938;28;20206;-70
2023/02/09 12:43:45;;;;;;;18.13;11.87;;;;;;;;;;5030121;28;20668;-70
2023/02/09 12:46:19;;;;;;;17.50;12.17;;;;;;;;;;5032432;28;20249;-70
2023/02/09 12:48:44;;;;;;;16.43;12.07;;;;;;;;;;5018279;28;20177;-71
2023/02/09 12:51:30;;;;;;;17.27;12.10;;;;;;;;;;5033491;28;20190;-70
2023/02/09 12:53:55;;;;;;;19.60;11.77;;;;;;;;;;5029746;28;20616;-71
2023/02/09 12:56:20;;;;;;;17.73;12.87;;;;;;;;;;5027661;28;20178;-70
2023/02/09 12:58:48;;;;;;;19.00;12.27;;;;;;;;;;5033546;28;20693;-71
2023/02/09 13:01:14;;;;;;;18.77;12.43;;;;;;;;;;5032901;28;20209;-70
2023/02/09 13:03:44;;;;;;;19.60;13.10;;;;;;;;;;5024026;28;20537;-71
2023/02/09 13:06:20;;;;;;;19.83;12.07;;;;;;;;;;5026251;28;20289;-71
2023/02/09 13:08:49;;;;;;;19.57;12.47;;;;;;;;;;5025992;28;20194;-73
2023/02/09 13:11:24;;;;;;;22.37;13.77;;;;;;;;;;5027105;28;20198;-70
2023/02/09 13:13:57;;;;;;;28.43;14.00;;;;;;;;;;5027584;28;20257;-72
2023/02/09 13:16:28;;;;;;;17.77;11.47;;;;;;;;;;5032997;28;20195;-71
2023/02/09 13:18:56;;;;;;;18.30;12.70;;;;;;;;;;5031866;28;20281;-71
2023/02/09 13:21:36;;;;;;;17.77;12.37;;;;;;;;;;5023043;28;20297;-72
2023/02/09 13:24:09;;;;;;;20.50;12.50;;;;;;;;;;5028566;28;20718;-72
2023/02/09 13:26:35;;;;;;;22.03;14.97;;;;;;;;;;5027025;28;20450;-71
2023/02/09 13:29:24;;;;;;;19.20;12.70;;;;;;;;;;5029911;28;20224;-72
2023/02/09 13:31:51;;;;;;;19.77;13.90;;;;;;;;;;5003601;28;20319;-71
2023/02/09 13:34:22;;;;;;;19.00;12.83;;;;;;;;;;5015549;28;20174;-72
2023/02/09 13:37:14;;;;;;;19.73;12.87;;;;;;;;;;5031244;28;20213;-73
2023/02/09 13:39:40;;;;;;;22.33;12.40;;;;;;;;;;5029776;28;20237;-70
2023/02/09 13:42:22;;;;;;;22.30;14.23;;;;;;;;;;5023965;28;20213;-70
2023/02/09 13:44:51;;;;;;;20.03;13.27;;;;;;;;;;5009825;28;20182;-70
2023/02/09 13:47:16;;;;;;;19.83;14.27;;;;;;;;;;5028400;28;20721;-69
2023/02/09 13:49:53;;;;;;;19.97;13.27;;;;;;;;;;5026718;28;20269;-70
2023/02/09 13:52:22;;;;;;;17.47;12.13;;;;;;;;;;5024769;28;20698;-70
2023/02/09 13:54:48;;;;;;;20.93;13.47;;;;;;;;;;5030379;28;20257;-70
2023/02/09 13:57:28;;;;;;;22.17;14.13;;;;;;;;;;5018076;28;20832;-70
2023/02/09 13:59:53;;;;;;;18.10;12.20;;;;;;;;;;5021923;28;20548;-71
2023/02/09 14:02:24;;;;;;;22.77;14.07;;;;;;;;;;5025819;28;20190;-71
2023/02/09 14:04:52;;;;;;;23.87;13.80;;;;;;;;;;5030886;28;20228;-72
2023/02/09 14:07:18;;;;;;;22.43;15.00;;;;;;;;;;5028013;28;20182;-72
2023/02/09 14:09:43;;;;;;;19.23;13.80;;;;;;;;;;5031177;28;20190;-72
2023/02/09 14:12:49;;;;;;;19.13;13.13;;;;;;;;;;5027537;28;20202;-71
2023/02/09 14:17:54;;;;;;;21.30;13.03;;;;;;;;;;5030935;28;20319;-71
2023/02/09 14:20:21;;;;;;;24.77;14.47;;;;;;;;;;5032232;28;20709;-71
2023/02/09 14:22:54;;;;;;;19.43;13.80;;;;;;;;;;5030869;28;20182;-71
2023/02/09 14:25:23;;;;;;;25.50;14.30;;;;;;;;;;5028941;28;20174;-71
2023/02/09 14:27:48;;;;;;;23.43;15.43;;;;;;;;;;5030170;28;20182;-73
2023/02/09 14:30:14;;;;;;;22.43;14.20;;;;;;;;;;5027227;28;20598;-70
2023/02/09 14:32:41;;;;;;;26.67;14.67;;;;;;;;;;5028612;28;20186;-71
2023/02/09 14:35:12;;;;;;;25.93;15.90;;;;;;;;;;5031716;28;20182;-71
2023/02/09 14:37:38;;;;;;;22.53;14.23;;;;;;;;;;5025552;28;20245;-71
2023/02/09 14:40:06;;;;;;;21.83;15.17;;;;;;;;;;5033590;28;20658;-71
2023/02/09 14:42:32;;;;;;;22.93;14.40;;;;;;;;;;5029638;28;20174;-73
2023/02/09 14:44:58;;;;;;;20.27;14.70;;;;;;;;;;5033357;28;20178;-72
2023/02/09 14:47:42;;;;;;;22.27;13.40;;;;;;;;;;5028055;28;20553;-72
2023/02/09 14:50:12;;;;;;;19.67;14.43;;;;;;;;;;5034121;28;20220;-72